createdAt,value
2022-09-23T00:00:53.405Z,996.62
2022-09-23T00:01:53.461Z,996.65
2022-09-23T00:02:53.457Z,995.83
2022-09-23T00:03:53.381Z,994.94
2022-09-23T00:04:53.362Z,994.36
2022-09-23T00:05:53.343Z,994.18
2022-09-23T00:06:53.532Z,993.63
2022-09-23T00:07:53.316Z,993.53
2022-09-23T00:08:53.312Z,993.53
2022-09-23T00:09:53.333Z,992.88
2022-09-23T00:10:53.303Z,992.94
2022-09-23T00:11:54.082Z,992.11
2022-09-23T00:12:53.273Z,991.92
2022-09-23T00:13:53.262Z,992.10
2022-09-23T00:14:53.244Z,992.74
2022-09-23T00:15:53.228Z,993.16
2022-09-23T00:16:53.412Z,993.03
2022-09-23T00:17:53.214Z,992.88
2022-09-23T00:18:53.196Z,992.44
2022-09-23T00:19:53.184Z,991.81
2022-09-23T00:20:53.183Z,991.53
2022-09-23T00:21:53.173Z,991.22
2022-09-23T00:22:53.173Z,990.98
2022-09-23T00:23:53.174Z,990.50
2022-09-23T00:24:53.146Z,990.28
2022-09-23T00:25:53.125Z,990.45
2022-09-23T00:26:53.141Z,990.54
2022-09-23T00:27:53.114Z,990.07
2022-09-23T00:28:53.086Z,990.40
2022-09-23T00:29:53.077Z,990.83
2022-09-23T00:30:53.148Z,990.70
2022-09-23T00:31:53.076Z,991.26
2022-09-23T00:32:53.047Z,991.52
2022-09-23T00:33:53.044Z,991.56
2022-09-23T00:34:53.034Z,990.87
2022-09-23T00:35:53.015Z,991.06
2022-09-23T00:36:53.040Z,991.12
2022-09-23T00:37:53.002Z,991.13
2022-09-23T00:38:52.975Z,991.05
2022-09-23T00:39:52.976Z,991.44
2022-09-23T00:40:52.975Z,991.31
2022-09-23T00:41:52.975Z,991.26
2022-09-23T00:42:52.953Z,991.57
2022-09-23T00:43:52.944Z,991.46
2022-09-23T00:44:52.923Z,991.37
2022-09-23T00:45:52.971Z,991.47
2022-09-23T00:46:52.914Z,991.59
2022-09-23T00:47:52.897Z,992.02
2022-09-23T00:48:52.874Z,991.81
2022-09-23T00:49:52.866Z,991.85
2022-09-23T00:50:52.851Z,991.56
2022-09-23T00:51:52.857Z,991.55
2022-09-23T00:52:52.825Z,991.96
2022-09-23T00:53:52.814Z,992.60
2022-09-23T00:54:52.797Z,993.02
2022-09-23T00:55:52.794Z,993.31
2022-09-23T00:56:52.796Z,993.92
2022-09-23T00:57:52.789Z,993.60
2022-09-23T00:58:52.759Z,993.34
2022-09-23T00:59:52.739Z,993.54
2022-09-23T01:00:53.533Z,993.40
2022-09-23T01:01:52.749Z,993.33
2022-09-23T01:02:52.735Z,993.00
2022-09-23T01:03:52.699Z,993.12
2022-09-23T01:04:52.707Z,992.84
2022-09-23T01:05:52.937Z,992.94
2022-09-23T01:06:52.689Z,993.01
2022-09-23T01:07:52.661Z,993.61
2022-09-23T01:08:52.661Z,993.83
2022-09-23T01:09:52.631Z,993.80
2022-09-23T01:10:52.620Z,993.95
2022-09-23T01:11:53.441Z,994.37
2022-09-23T01:12:53.860Z,994.30
2022-09-23T01:13:52.593Z,994.45
2022-09-23T01:14:52.590Z,994.58
2022-09-23T01:15:52.582Z,994.42
2022-09-23T01:16:52.606Z,994.89
2022-09-23T01:17:52.540Z,995.32
2022-09-23T01:18:52.836Z,994.55
2022-09-23T01:19:52.545Z,994.70
2022-09-23T01:20:52.501Z,994.27
2022-09-23T01:21:52.814Z,994.79
2022-09-23T01:22:53.410Z,994.99
2022-09-23T01:23:52.499Z,994.65
2022-09-23T01:24:52.468Z,994.51
2022-09-23T01:25:52.464Z,994.28
2022-09-23T01:26:52.451Z,993.88
2022-09-23T01:27:52.422Z,993.48
2022-09-23T01:28:52.701Z,993.21
2022-09-23T01:29:52.414Z,993.24
2022-09-23T01:30:52.745Z,993.54
2022-09-23T01:31:52.401Z,994.13
2022-09-23T01:32:52.392Z,994.40
2022-09-23T01:33:52.352Z,994.40
2022-09-23T01:34:52.352Z,994.60
2022-09-23T01:35:53.184Z,994.37
2022-09-23T01:36:52.356Z,994.28
2022-09-23T01:37:52.313Z,994.52
2022-09-23T01:38:52.325Z,994.98
2022-09-23T01:39:52.562Z,995.42
2022-09-23T01:40:52.317Z,995.73
2022-09-23T01:41:52.281Z,995.95
2022-09-23T01:42:52.294Z,996.37
2022-09-23T01:43:52.534Z,996.66
2022-09-23T01:44:52.232Z,996.80
2022-09-23T01:45:52.243Z,996.78
2022-09-23T01:46:53.155Z,997.00
2022-09-23T01:47:52.235Z,996.92
2022-09-23T01:48:52.190Z,997.00
2022-09-23T01:49:52.458Z,997.13
2022-09-23T01:50:52.174Z,997.38
2022-09-23T01:51:52.447Z,997.41
2022-09-23T01:52:52.164Z,997.25
2022-09-23T01:53:52.399Z,997.53
2022-09-23T01:54:52.123Z,997.77
2022-09-23T01:55:52.104Z,997.69
2022-09-23T01:56:52.127Z,996.96
2022-09-23T01:57:52.113Z,996.56
2022-09-23T01:58:52.076Z,996.07
2022-09-23T01:59:52.938Z,995.47
2022-09-23T02:00:52.354Z,994.64
2022-09-23T02:01:52.074Z,994.05
2022-09-23T02:02:52.138Z,993.64
2022-09-23T02:03:52.039Z,993.73
2022-09-23T02:04:52.021Z,994.03
2022-09-23T02:05:52.007Z,994.46
2022-09-23T02:06:52.767Z,994.83
2022-09-23T02:07:51.995Z,995.76
2022-09-23T02:08:51.967Z,996.17
2022-09-23T02:09:51.978Z,996.73
2022-09-23T02:10:52.902Z,996.83
2022-09-23T02:11:51.973Z,997.08
2022-09-23T02:12:52.703Z,997.26
2022-09-23T02:13:51.941Z,997.84
2022-09-23T02:14:51.897Z,998.21
2022-09-23T02:15:51.895Z,998.09
2022-09-23T02:16:52.069Z,998.69
2022-09-23T02:17:51.899Z,999.21
2022-09-23T02:18:51.847Z,999.45
2022-09-23T02:19:51.845Z,1000.06
2022-09-23T02:20:52.106Z,1000.42
2022-09-23T02:21:51.836Z,1000.51
2022-09-23T02:22:51.807Z,1001.17
2022-09-23T02:23:52.680Z,1002.05
2022-09-23T02:24:51.799Z,1002.31
2022-09-23T02:25:51.777Z,1002.15
2022-09-23T02:26:51.818Z,1002.35
2022-09-23T02:27:52.027Z,1002.68
2022-09-23T02:28:51.748Z,1002.72
2022-09-23T02:29:51.753Z,1003.41
2022-09-23T02:30:51.747Z,1003.72
2022-09-23T02:31:52.162Z,1003.85
2022-09-23T02:32:51.711Z,1004.15
2022-09-23T02:33:52.747Z,1004.22
2022-09-23T02:34:51.723Z,1004.57
2022-09-23T02:35:51.668Z,1004.72
2022-09-23T02:36:51.679Z,1004.68
2022-09-23T02:37:51.659Z,1004.98
2022-09-23T02:38:51.629Z,1005.24
2022-09-23T02:39:51.608Z,1005.43
2022-09-23T02:40:51.665Z,1005.64
2022-09-23T02:41:51.619Z,1005.97
2022-09-23T02:42:51.602Z,1006.47
2022-09-23T02:43:51.574Z,1006.59
2022-09-23T02:44:51.835Z,1006.84
2022-09-23T02:45:51.594Z,1006.35
2022-09-23T02:46:52.509Z,1006.53
2022-09-23T02:47:52.425Z,1006.46
2022-09-23T02:48:51.550Z,1006.93
2022-09-23T02:49:51.515Z,1007.26
2022-09-23T02:50:51.770Z,1007.52
2022-09-23T02:51:51.519Z,1007.77
2022-09-23T02:52:52.446Z,1007.23
2022-09-23T02:53:51.452Z,1007.26
2022-09-23T02:54:51.481Z,1007.35
2022-09-23T02:55:51.466Z,1007.74
2022-09-23T02:56:51.452Z,1007.84
2022-09-23T02:57:52.480Z,1007.83
2022-09-23T02:58:52.381Z,1007.99
2022-09-23T02:59:51.408Z,1008.04
2022-09-23T03:00:51.473Z,1008.37
2022-09-23T03:01:51.477Z,1008.75
2022-09-23T03:02:51.368Z,1009.05
2022-09-23T03:03:51.401Z,1009.37
2022-09-23T03:04:52.323Z,1009.39
2022-09-23T03:05:51.366Z,1009.14
2022-09-23T03:06:51.347Z,1009.19
2022-09-23T03:07:51.319Z,1008.84
2022-09-23T03:08:51.577Z,1009.09
2022-09-23T03:09:51.301Z,1008.95
2022-09-23T03:10:51.295Z,1009.36
2022-09-23T03:11:51.574Z,1009.65
2022-09-23T03:12:51.567Z,1009.80
2022-09-23T03:13:52.504Z,1009.81
2022-09-23T03:14:51.513Z,1009.63
2022-09-23T03:15:51.236Z,1009.83
2022-09-23T03:16:51.295Z,1009.90
2022-09-23T03:17:51.212Z,1010.07
2022-09-23T03:18:51.224Z,1009.89
2022-09-23T03:19:51.792Z,1009.66
2022-09-23T03:20:51.179Z,1009.54
2022-09-23T03:21:51.847Z,1009.61
2022-09-23T03:22:51.171Z,1009.69
2022-09-23T03:23:51.141Z,1009.74
2022-09-23T03:24:54.057Z,1009.47
2022-09-23T03:25:51.139Z,1009.33
2022-09-23T03:26:51.105Z,1009.29
2022-09-23T03:27:51.082Z,1009.28
2022-09-23T03:28:51.368Z,1009.42
2022-09-23T03:29:51.357Z,1009.85
2022-09-23T03:30:51.068Z,1009.87
2022-09-23T03:31:51.099Z,1010.05
2022-09-23T03:32:51.064Z,1010.48
2022-09-23T03:33:52.094Z,1010.96
2022-09-23T03:34:51.016Z,1011.30
2022-09-23T03:35:51.903Z,1011.32
2022-09-23T03:36:51.301Z,1011.19
2022-09-23T03:37:50.974Z,1011.39
2022-09-23T03:38:51.003Z,1011.16
2022-09-23T03:39:52.034Z,1011.03
2022-09-23T03:40:51.086Z,1011.09
2022-09-23T03:41:51.421Z,1011.35
2022-09-23T03:42:50.965Z,1011.55
2022-09-23T03:43:50.930Z,1011.25
2022-09-23T03:44:50.924Z,1011.38
2022-09-23T03:45:52.003Z,1011.41
2022-09-23T03:46:51.877Z,1011.68
2022-09-23T03:47:50.867Z,1011.90
2022-09-23T03:48:50.865Z,1012.50
2022-09-23T03:49:50.880Z,1012.88
2022-09-23T03:50:50.878Z,1013.00
2022-09-23T03:51:50.825Z,1013.62
2022-09-23T03:52:50.835Z,1013.58
2022-09-23T03:53:50.969Z,1013.72
2022-09-23T03:54:50.819Z,1014.08
2022-09-23T03:55:50.785Z,1014.21
2022-09-23T03:56:50.788Z,1014.29
2022-09-23T03:57:50.791Z,1014.48
2022-09-23T03:58:50.764Z,1014.39
2022-09-23T03:59:51.685Z,1014.47
2022-09-23T04:00:50.787Z,1014.35
2022-09-23T04:01:50.817Z,1014.36
2022-09-23T04:02:50.715Z,1014.20
2022-09-23T04:03:50.708Z,1014.39
2022-09-23T04:04:50.697Z,1014.59
2022-09-23T04:05:50.699Z,1014.83
2022-09-23T04:06:50.685Z,1015.06
2022-09-23T04:07:50.689Z,1015.20
2022-09-23T04:08:50.633Z,1015.53
2022-09-23T04:09:51.388Z,1015.34
2022-09-23T04:10:54.653Z,1015.57
2022-09-23T04:11:50.642Z,1015.62
2022-09-23T04:12:50.589Z,1015.88
2022-09-23T04:13:50.857Z,1016.14
2022-09-23T04:14:50.573Z,1016.38
2022-09-23T04:15:50.551Z,1016.43
2022-09-23T04:16:50.670Z,1016.41
2022-09-23T04:17:50.561Z,1016.45
2022-09-23T04:18:50.519Z,1016.21
2022-09-23T04:19:50.521Z,1016.09
2022-09-23T04:20:50.980Z,1016.01
2022-09-23T04:21:50.528Z,1016.38
2022-09-23T04:22:50.468Z,1016.60
2022-09-23T04:23:51.392Z,1016.67
2022-09-23T04:24:50.728Z,1016.91
2022-09-23T04:25:50.449Z,1016.99
2022-09-23T04:26:50.500Z,1017.43
2022-09-23T04:27:50.441Z,1017.50
2022-09-23T04:28:50.426Z,1017.55
2022-09-23T04:29:50.463Z,1017.39
2022-09-23T04:30:50.400Z,1017.56
2022-09-23T04:31:50.431Z,1017.53
2022-09-23T04:32:50.381Z,1017.75
2022-09-23T04:33:51.475Z,1017.94
2022-09-23T04:34:51.373Z,1017.78
2022-09-23T04:35:50.335Z,1018.08
2022-09-23T04:36:50.330Z,1018.12
2022-09-23T04:37:51.069Z,1018.17
2022-09-23T04:38:50.299Z,1018.22
2022-09-23T04:39:50.451Z,1018.30
2022-09-23T04:40:50.373Z,1018.29
2022-09-23T04:41:51.200Z,1018.64
2022-09-23T04:42:50.279Z,1019.00
2022-09-23T04:43:50.247Z,1019.51
2022-09-23T04:44:50.264Z,1019.78
2022-09-23T04:45:50.251Z,1020.18
2022-09-23T04:46:50.403Z,1020.19
2022-09-23T04:47:50.502Z,1020.06
2022-09-23T04:48:50.220Z,1020.27
2022-09-23T04:49:50.173Z,1020.16
2022-09-23T04:50:50.179Z,1020.22
2022-09-23T04:51:50.460Z,1020.56
2022-09-23T04:52:50.151Z,1020.95
2022-09-23T04:53:50.120Z,1021.38
2022-09-23T04:54:50.141Z,1021.57
2022-09-23T04:55:50.102Z,1021.66
2022-09-23T04:56:50.110Z,1021.97
2022-09-23T04:57:51.202Z,1021.89
2022-09-23T04:58:50.091Z,1022.00
2022-09-23T04:59:50.082Z,1022.29
2022-09-23T05:00:50.086Z,1022.66
2022-09-23T05:01:50.853Z,1022.93
2022-09-23T05:02:50.212Z,1022.76
2022-09-23T05:03:50.023Z,1022.77
2022-09-23T05:04:50.055Z,1022.64
2022-09-23T05:05:50.293Z,1022.95
2022-09-23T05:06:50.032Z,1022.72
2022-09-23T05:07:49.993Z,1022.47
2022-09-23T05:08:49.972Z,1022.50
2022-09-23T05:09:49.952Z,1021.99
2022-09-23T05:10:49.951Z,1022.36
2022-09-23T05:11:50.255Z,1022.66
2022-09-23T05:12:53.632Z,1023.05
2022-09-23T05:13:51.705Z,1023.09
2022-09-23T05:14:50.209Z,1023.11
2022-09-23T05:15:49.940Z,1023.20
2022-09-23T05:16:49.893Z,1023.26
2022-09-23T05:17:49.854Z,1023.27
2022-09-23T05:18:49.882Z,1023.57
2022-09-23T05:19:49.834Z,1023.91
2022-09-23T05:20:49.824Z,1024.02
2022-09-23T05:21:50.946Z,1024.04
2022-09-23T05:22:49.831Z,1024.09
2022-09-23T05:23:50.336Z,1023.89
2022-09-23T05:24:50.095Z,1024.03
2022-09-23T05:25:49.796Z,1024.02
2022-09-23T05:26:50.052Z,1023.91
2022-09-23T05:27:49.751Z,1024.34
2022-09-23T05:28:49.764Z,1024.56
2022-09-23T05:29:49.742Z,1024.92
2022-09-23T05:30:49.715Z,1024.94
2022-09-23T05:31:49.782Z,1025.26
2022-09-23T05:32:49.733Z,1025.47
2022-09-23T05:33:50.757Z,1025.56
2022-09-23T05:34:49.677Z,1025.64
2022-09-23T05:35:49.954Z,1025.83
2022-09-23T05:36:49.675Z,1025.92
2022-09-23T05:37:49.646Z,1025.95
2022-09-23T05:38:49.637Z,1026.00
2022-09-23T05:39:49.635Z,1026.10
2022-09-23T05:40:49.678Z,1026.62
2022-09-23T05:41:50.601Z,1026.86
2022-09-23T05:42:49.595Z,1026.79
2022-09-23T05:43:49.618Z,1026.77
2022-09-23T05:44:50.174Z,1026.97
2022-09-23T05:45:49.834Z,1027.07
2022-09-23T05:46:49.636Z,1027.27
2022-09-23T05:47:49.552Z,1027.03
2022-09-23T05:48:49.831Z,1027.35
2022-09-23T05:49:59.686Z,1027.48
2022-09-23T05:50:50.504Z,1027.81
2022-09-23T05:51:49.556Z,1027.89
2022-09-23T05:52:49.496Z,1028.03
2022-09-23T05:53:49.742Z,1028.19
2022-09-23T05:54:49.475Z,1028.15
2022-09-23T05:55:49.487Z,1028.02
2022-09-23T05:56:49.470Z,1027.85
2022-09-23T05:57:49.436Z,1027.61
2022-09-23T05:58:50.479Z,1027.56
2022-09-23T05:59:49.418Z,1027.28
2022-09-23T06:00:50.277Z,1027.06
2022-09-23T06:01:52.037Z,1027.05
2022-09-23T06:02:50.422Z,1026.92
2022-09-23T06:03:49.359Z,1026.82
2022-09-23T06:04:49.340Z,1027.21
2022-09-23T06:05:49.378Z,1027.30
2022-09-23T06:06:49.341Z,1027.16
2022-09-23T06:07:49.566Z,1026.79
2022-09-23T06:08:51.823Z,1026.66
2022-09-23T06:09:49.615Z,1026.57
2022-09-23T06:10:54.437Z,1026.38
2022-09-23T06:11:49.297Z,1026.34
2022-09-23T06:12:49.558Z,1026.43
2022-09-23T06:13:49.274Z,1026.79
2022-09-23T06:14:49.228Z,1026.81
2022-09-23T06:15:49.289Z,1026.40
2022-09-23T06:16:49.219Z,1026.90
2022-09-23T06:17:49.190Z,1027.18
2022-09-23T06:18:49.249Z,1026.81
2022-09-23T06:19:49.171Z,1026.38
2022-09-23T06:20:50.371Z,1026.01
2022-09-23T06:21:50.300Z,1025.35
2022-09-23T06:22:53.216Z,1024.87
2022-09-23T06:23:53.979Z,1024.73
2022-09-23T06:24:50.128Z,1024.57
2022-09-23T06:25:49.955Z,1023.98
2022-09-23T06:26:50.350Z,1023.91
2022-09-23T06:27:49.115Z,1023.99
2022-09-23T06:28:49.091Z,1023.91
2022-09-23T06:29:49.387Z,1023.79
2022-09-23T06:30:49.051Z,1023.15
2022-09-23T06:31:49.214Z,1022.55
2022-09-23T06:32:49.065Z,1022.09
2022-09-23T06:33:49.097Z,1022.13
2022-09-23T06:34:52.079Z,1022.04
2022-09-23T06:35:58.008Z,1022.24
2022-09-23T06:36:50.015Z,1023.30
2022-09-23T06:37:48.983Z,1024.90
2022-09-23T06:38:49.019Z,1024.47
2022-09-23T06:39:48.963Z,1024.34
2022-09-23T06:40:50.052Z,1024.24
2022-09-23T06:41:48.931Z,1022.44
2022-09-23T06:42:52.363Z,1023.19
2022-09-23T06:43:48.910Z,1023.65
2022-09-23T06:44:48.900Z,1025.78
2022-09-23T06:45:49.182Z,1026.09
2022-09-23T06:46:48.934Z,1026.31
2022-09-23T06:47:49.861Z,1026.29
2022-09-23T06:48:49.148Z,1024.22
2022-09-23T06:49:49.402Z,1022.15
2022-09-23T06:50:48.841Z,1020.17
2022-09-23T06:51:48.831Z,1020.23
2022-09-23T06:52:48.840Z,1021.75
2022-09-23T06:53:48.819Z,1022.68
2022-09-23T06:54:48.782Z,1022.31
2022-09-23T06:55:48.808Z,1020.68
2022-09-23T06:56:50.025Z,1020.44
2022-09-23T06:57:48.811Z,1017.76
2022-09-23T06:58:49.014Z,1017.00
2022-09-23T06:59:48.753Z,1017.20
2022-09-23T07:00:48.747Z,1015.56
2022-09-23T07:01:48.860Z,1016.40
2022-09-23T07:02:48.951Z,1016.87
2022-09-23T07:03:48.691Z,1014.54
2022-09-23T07:04:48.684Z,1016.18
2022-09-23T07:05:48.702Z,1018.39
2022-09-23T07:06:48.674Z,1018.13
2022-09-23T07:07:48.644Z,1019.10
2022-09-23T07:08:49.728Z,1016.31
2022-09-23T07:09:49.817Z,1015.49
2022-09-23T07:10:48.614Z,1017.28
2022-09-23T07:11:48.633Z,1022.44
2022-09-23T07:12:48.594Z,1021.39
2022-09-23T07:13:48.602Z,1017.75
2022-09-23T07:14:48.572Z,1019.39
2022-09-23T07:15:48.588Z,1022.15
2022-09-23T07:16:48.575Z,1023.79
2022-09-23T07:17:48.532Z,1022.06
2022-09-23T07:18:49.436Z,1022.85
2022-09-23T07:19:49.358Z,1024.36
2022-09-23T07:20:48.496Z,1024.28
2022-09-23T07:21:49.302Z,1024.12
2022-09-23T07:22:48.748Z,1022.77
2022-09-23T07:23:48.465Z,1021.33
2022-09-23T07:24:48.734Z,1021.56
2022-09-23T07:25:49.279Z,1021.50
2022-09-23T07:26:48.445Z,1022.41
2022-09-23T07:27:48.416Z,1025.20
2022-09-23T07:28:48.423Z,1025.01
2022-09-23T07:29:49.050Z,1024.43
2022-09-23T07:30:57.672Z,1024.23
2022-09-23T07:31:50.432Z,1023.43
2022-09-23T07:32:49.455Z,1021.94
2022-09-23T07:33:48.417Z,1020.41
2022-09-23T07:34:48.379Z,1020.69
2022-09-23T07:35:48.353Z,1018.96
2022-09-23T07:36:48.314Z,1018.89
2022-09-23T07:37:48.296Z,1020.73
2022-09-23T07:38:49.058Z,1024.19
2022-09-23T07:39:48.301Z,1026.30
2022-09-23T07:40:48.308Z,1025.24
2022-09-23T07:41:48.563Z,1026.52
2022-09-23T07:42:49.205Z,1027.56
2022-09-23T07:43:48.245Z,1030.05
2022-09-23T07:44:48.988Z,1028.05
2022-09-23T07:45:48.232Z,1029.86
2022-09-23T07:46:48.313Z,1031.85
2022-09-23T07:47:48.203Z,1032.76
2022-09-23T07:48:48.241Z,1032.44
2022-09-23T07:49:48.459Z,1032.10
2022-09-23T07:50:48.572Z,1033.07
2022-09-23T07:51:48.201Z,1033.62
2022-09-23T07:52:48.424Z,1034.95
2022-09-23T07:53:48.118Z,1033.31
2022-09-23T07:54:48.588Z,1029.91
2022-09-23T07:55:49.050Z,1026.86
2022-09-23T07:56:48.108Z,1028.60
2022-09-23T07:57:48.071Z,1031.91
2022-09-23T07:58:48.365Z,1029.80
2022-09-23T07:59:48.069Z,1031.12
2022-09-23T08:00:48.058Z,1028.71
2022-09-23T08:01:48.142Z,1029.63
2022-09-23T08:02:52.879Z,1026.15
2022-09-23T08:03:48.001Z,1031.28
2022-09-23T08:04:47.991Z,1030.77
2022-09-23T08:05:48.011Z,1028.11
2022-09-23T08:06:48.252Z,1024.21
2022-09-23T08:07:47.971Z,1025.99
2022-09-23T08:08:53.061Z,1026.85
2022-09-23T08:09:48.731Z,1027.39
2022-09-23T08:10:47.950Z,1026.28
2022-09-23T08:11:48.760Z,1027.44
2022-09-23T08:12:48.258Z,1028.43
2022-09-23T08:13:47.893Z,1026.80
2022-09-23T08:14:48.677Z,1024.55
2022-09-23T08:15:53.246Z,1020.13
2022-09-23T08:16:49.173Z,1015.65
2022-09-23T08:17:47.854Z,1018.24
2022-09-23T08:18:48.920Z,1020.38
2022-09-23T08:19:48.703Z,1022.23
2022-09-23T08:20:48.199Z,1022.54
2022-09-23T08:21:47.825Z,1023.57
2022-09-23T08:22:47.841Z,1022.28
2022-09-23T08:23:47.779Z,1020.91
2022-09-23T08:24:47.786Z,1019.17
2022-09-23T08:25:47.786Z,1017.87
2022-09-23T08:26:47.784Z,1021.61
2022-09-23T08:27:47.744Z,1023.18
2022-09-23T08:28:48.879Z,1024.34
2022-09-23T08:29:47.754Z,1024.23
2022-09-23T08:30:47.745Z,1023.63
2022-09-23T08:31:47.724Z,1024.28
2022-09-23T08:32:48.039Z,1022.14
2022-09-23T08:33:47.703Z,1025.19
2022-09-23T08:34:48.801Z,1026.65
2022-09-23T08:35:47.688Z,1028.02
2022-09-23T08:36:47.916Z,1028.58
2022-09-23T08:37:47.636Z,1029.08
2022-09-23T08:38:49.352Z,1026.33
2022-09-23T08:39:47.604Z,1025.85
2022-09-23T08:40:47.653Z,1025.08
2022-09-23T08:41:47.596Z,1021.94
2022-09-23T08:42:48.559Z,1021.11
2022-09-23T08:43:47.555Z,1018.82
2022-09-23T08:44:47.538Z,1019.67
2022-09-23T08:45:47.547Z,1023.28
2022-09-23T08:46:47.557Z,1022.34
2022-09-23T08:47:47.517Z,1022.52
2022-09-23T08:48:47.508Z,1020.57
2022-09-23T08:49:47.645Z,1017.07
2022-09-23T08:50:47.485Z,1016.79
2022-09-23T08:51:47.488Z,1016.31
2022-09-23T08:52:47.468Z,1016.54
2022-09-23T08:53:47.446Z,1018.67
2022-09-23T08:54:50.790Z,1017.52
2022-09-23T08:55:49.357Z,1015.18
2022-09-23T08:56:47.437Z,1014.20
2022-09-23T08:58:02.404Z,1015.12
2022-09-23T08:58:48.432Z,1014.02
2022-09-23T08:59:47.368Z,1014.51
2022-09-23T09:00:47.375Z,1014.68
2022-09-23T09:01:47.422Z,1014.91
2022-09-23T09:02:47.719Z,1013.93
2022-09-23T09:03:47.341Z,1012.21
2022-09-23T09:04:47.310Z,1011.50
2022-09-23T09:05:53.899Z,1009.29
2022-09-23T09:06:53.699Z,1008.19
2022-09-23T09:07:47.285Z,1005.92
2022-09-23T09:08:47.284Z,1005.85
2022-09-23T09:09:47.284Z,1005.69
2022-09-23T09:10:47.261Z,1004.85
2022-09-23T09:11:48.686Z,1004.13
2022-09-23T09:12:47.244Z,1002.59
2022-09-23T09:13:48.147Z,1002.24
2022-09-23T09:14:47.202Z,1001.34
2022-09-23T09:15:48.435Z,1000.06
2022-09-23T09:17:02.413Z,999.97
2022-09-23T09:17:48.180Z,999.56
2022-09-23T09:18:48.259Z,999.22
2022-09-23T09:19:48.076Z,999.19
2022-09-23T09:20:47.135Z,999.03
2022-09-23T09:21:47.614Z,998.71
2022-09-23T09:22:47.133Z,997.88
2022-09-23T09:23:47.425Z,996.32
2022-09-23T09:24:47.083Z,995.98
2022-09-23T09:25:47.131Z,995.92
2022-09-23T09:26:47.106Z,996.42
2022-09-23T09:27:47.058Z,998.43
2022-09-23T09:28:48.236Z,998.63
2022-09-23T09:29:50.136Z,999.31
2022-09-23T09:30:48.768Z,998.58
2022-09-23T09:31:47.067Z,997.64
2022-09-23T09:32:47.036Z,997.03
2022-09-23T09:33:48.164Z,996.97
2022-09-23T09:34:46.987Z,997.49
2022-09-23T09:35:47.179Z,997.81
2022-09-23T09:36:47.590Z,997.84
2022-09-23T09:37:47.115Z,997.54
2022-09-23T09:38:47.335Z,996.78
2022-09-23T09:39:46.973Z,995.34
2022-09-23T09:40:47.212Z,995.07
2022-09-23T09:41:46.931Z,994.46
2022-09-23T09:42:46.888Z,993.69
2022-09-23T09:43:47.836Z,994.46
2022-09-23T09:44:46.862Z,994.97
2022-09-23T09:45:46.848Z,996.09
2022-09-23T09:46:46.935Z,995.78
2022-09-23T09:47:47.099Z,996.88
2022-09-23T09:48:46.808Z,997.69
2022-09-23T09:49:46.827Z,998.31
2022-09-23T09:50:46.804Z,996.47
2022-09-23T09:51:46.789Z,994.37
2022-09-23T09:52:47.012Z,993.70
2022-09-23T09:53:46.706Z,994.05
2022-09-23T09:54:46.708Z,994.24
2022-09-23T09:55:47.632Z,994.24
2022-09-23T09:57:46.670Z,995.16
2022-09-23T09:58:46.682Z,994.10
2022-09-23T09:59:46.913Z,993.59
2022-09-23T10:00:46.627Z,992.68
2022-09-23T10:01:46.664Z,990.95
2022-09-23T10:02:46.613Z,993.19
2022-09-23T10:03:46.621Z,994.04
2022-09-23T10:04:46.824Z,993.80
2022-09-23T10:05:46.862Z,988.69
2022-09-23T10:06:46.866Z,987.00
2022-09-23T10:07:46.546Z,986.88
2022-09-23T10:08:46.614Z,985.33
2022-09-23T10:09:46.814Z,986.23
2022-09-23T10:10:46.540Z,989.72
2022-09-23T10:11:46.563Z,992.03
2022-09-23T10:12:46.792Z,991.85
2022-09-23T10:13:47.442Z,996.51
2022-09-23T10:14:47.333Z,998.29
2022-09-23T10:15:46.878Z,1000.79
2022-09-23T10:16:46.507Z,1001.48
2022-09-23T10:17:47.523Z,1002.07
2022-09-23T10:18:46.443Z,1002.19
2022-09-23T10:19:46.423Z,1004.48
2022-09-23T10:20:46.416Z,1004.26
2022-09-23T10:21:46.442Z,1002.35
2022-09-23T10:22:46.405Z,1005.52
2022-09-23T10:23:47.496Z,1004.28
2022-09-23T10:24:46.374Z,1007.73
2022-09-23T10:25:46.625Z,1011.23
2022-09-23T10:26:46.354Z,1009.23
2022-09-23T10:27:46.357Z,1010.34
2022-09-23T10:28:46.339Z,1007.84
2022-09-23T10:29:46.305Z,1005.81
2022-09-23T10:30:46.330Z,999.93
2022-09-23T10:31:46.330Z,998.18
2022-09-23T10:32:46.364Z,994.52
2022-09-23T10:33:46.279Z,985.08
2022-09-23T10:34:47.471Z,973.39
2022-09-23T10:35:46.251Z,975.53
2022-09-23T10:36:46.247Z,973.07
2022-09-23T10:37:46.501Z,978.98
2022-09-23T10:38:46.501Z,979.95
2022-09-23T10:39:46.200Z,980.64
2022-09-23T10:40:46.370Z,979.37
2022-09-23T10:41:46.494Z,978.87
2022-09-23T10:42:46.165Z,978.11
2022-09-23T10:43:46.144Z,978.03
2022-09-23T10:44:46.171Z,975.33
2022-09-23T10:45:47.003Z,974.68
2022-09-23T10:46:46.158Z,974.68
2022-09-23T10:47:46.116Z,974.13
2022-09-23T10:48:46.397Z,973.23
2022-09-23T10:49:46.092Z,972.14
2022-09-23T10:50:46.372Z,967.01
2022-09-23T10:51:46.089Z,970.22
2022-09-23T10:52:46.127Z,968.06
2022-09-23T10:53:47.182Z,970.75
2022-09-23T10:54:47.095Z,970.02
2022-09-23T10:55:46.323Z,968.26
2022-09-23T10:56:45.996Z,965.72
2022-09-23T10:57:46.017Z,971.37
2022-09-23T10:58:45.987Z,968.66
2022-09-23T10:59:46.155Z,967.25
2022-09-23T11:00:45.984Z,964.14
2022-09-23T11:01:46.326Z,961.80
2022-09-23T11:02:45.985Z,958.26
2022-09-23T11:03:45.927Z,955.83
2022-09-23T11:04:46.817Z,959.81
2022-09-23T11:05:45.951Z,953.66
2022-09-23T11:06:45.911Z,950.07
2022-09-23T11:07:45.903Z,941.88
2022-09-23T11:08:45.927Z,952.53
2022-09-23T11:09:45.854Z,955.41
2022-09-23T11:10:46.773Z,958.72
2022-09-23T11:11:45.892Z,961.19
2022-09-23T11:12:46.985Z,966.55
2022-09-23T11:13:45.835Z,970.78
2022-09-23T11:14:45.825Z,968.09
2022-09-23T11:15:46.616Z,969.00
2022-09-23T11:16:45.921Z,967.37
2022-09-23T11:17:45.796Z,955.06
2022-09-23T11:18:45.794Z,941.10
2022-09-23T11:19:45.914Z,941.74
2022-09-23T11:20:46.198Z,945.70
2022-09-23T11:21:45.758Z,950.70
2022-09-23T11:22:45.710Z,951.25
2022-09-23T11:23:45.736Z,926.63
2022-09-23T11:24:45.705Z,933.24
2022-09-23T11:25:45.721Z,945.05
2022-09-23T11:26:45.671Z,945.98
2022-09-23T11:27:45.968Z,947.76
2022-09-23T11:28:45.645Z,967.57
2022-09-23T11:29:45.647Z,965.54
2022-09-23T11:30:45.731Z,963.92
2022-09-23T11:31:45.879Z,957.75
2022-09-23T11:32:45.661Z,960.96
2022-09-23T11:33:45.892Z,965.67
2022-09-23T11:34:45.865Z,968.28
2022-09-23T11:35:46.275Z,965.39
2022-09-23T11:36:45.573Z,971.28
2022-09-23T11:37:45.606Z,975.31
2022-09-23T11:38:45.537Z,976.04
2022-09-23T11:39:45.545Z,973.14
2022-09-23T11:40:46.619Z,966.58
2022-09-23T11:41:45.789Z,959.89
2022-09-23T11:42:46.589Z,958.47
2022-09-23T11:43:46.497Z,956.30
2022-09-23T11:44:46.409Z,955.45
2022-09-23T11:45:45.520Z,965.18
2022-09-23T11:46:45.498Z,954.94
2022-09-23T11:47:45.482Z,950.86
2022-09-23T11:48:45.422Z,958.89
2022-09-23T11:49:45.404Z,963.73
2022-09-23T11:50:45.441Z,962.13
2022-09-23T11:51:45.395Z,967.74
2022-09-23T11:52:45.395Z,961.35
2022-09-23T11:53:45.403Z,962.23
2022-09-23T11:54:46.474Z,951.56
2022-09-23T11:55:56.768Z,950.69
2022-09-23T11:56:48.818Z,964.21
2022-09-23T11:57:49.346Z,964.77
2022-09-23T11:58:49.431Z,976.67
2022-09-23T11:59:46.317Z,978.51
2022-09-23T12:00:49.613Z,984.03
2022-09-23T12:01:46.307Z,984.56
2022-09-23T12:02:54.015Z,982.39
2022-09-23T12:03:46.400Z,979.19
2022-09-23T12:04:55.765Z,972.29
2022-09-23T12:05:46.357Z,967.93
2022-09-23T12:06:45.265Z,959.54
2022-09-23T12:07:46.254Z,957.27
2022-09-23T12:08:45.203Z,957.78
2022-09-23T12:09:58.101Z,956.95
2022-09-23T12:10:46.221Z,961.09
2022-09-23T12:11:45.201Z,959.88
2022-09-23T12:12:45.170Z,957.64
2022-09-23T12:13:45.184Z,954.63
2022-09-23T12:14:45.143Z,947.13
2022-09-23T12:15:45.157Z,943.82
2022-09-23T12:16:45.505Z,943.35